Time;durP1;ratioP1;P1;durP2;ratioP2;P2;SDS_P1;SDS_P2;PMS_P1;PMS_P2;Temp;Humidity;BMP_temperature;BMP_pressure;BME280_temperature;BME280_humidity;BME280_pressure;Samples;Min_cycle;Max_cycle;Signal;HPM_P1;HPM_P2
2022/06/08 00:01:42;;;;;;;1.30;1.20;;;;;;;;;;4940701;29;20240;-93
2022/06/08 00:04:11;;;;;;;1.38;1.17;;;;;;;;;;4939601;29;20232;-92
2022/06/08 00:06:42;;;;;;;1.02;1.00;;;;;;;;;;4936649;29;20307;-93
2022/06/08 00:09:09;;;;;;;1.20;1.10;;;;;;;;;;4949472;29;20205;-93
2022/06/08 00:11:37;;;;;;;1.08;1.00;;;;;;;;;;4951767;28;20292;-92
2022/06/08 00:14:06;;;;;;;1.00;1.00;;;;;;;;;;4940005;29;20211;-93
2022/06/08 00:16:34;;;;;;;1.20;1.10;;;;;;;;;;4939631;28;20240;-93
2022/06/08 00:19:01;;;;;;;1.40;1.30;;;;;;;;;;4938882;29;20220;-92
2022/06/08 00:21:32;;;;;;;1.40;1.20;;;;;;;;;;4942532;28;20213;-92
2022/06/08 00:24:01;;;;;;;0.90;0.90;;;;;;;;;;4946796;29;20311;-93
2022/06/08 00:26:31;;;;;;;1.20;1.10;;;;;;;;;;4939545;29;20320;-93
2022/06/08 00:29:00;;;;;;;1.00;0.90;;;;;;;;;;4944582;28;20209;-94
2022/06/08 00:31:29;;;;;;;1.02;1.02;;;;;;;;;;4950992;29;20213;-93
2022/06/08 00:34:02;;;;;;;0.93;0.93;;;;;;;;;;4947227;29;20212;-92
2022/06/08 00:36:32;;;;;;;1.00;1.00;;;;;;;;;;4950159;29;20228;-92
2022/06/08 00:39:00;;;;;;;1.20;1.13;;;;;;;;;;4938328;29;20222;-92
2022/06/08 00:41:34;;;;;;;1.20;1.20;;;;;;;;;;4948227;29;20238;-93
2022/06/08 00:44:03;;;;;;;1.48;1.30;;;;;;;;;;4943570;29;20227;-92
2022/06/08 00:46:32;;;;;;;1.63;1.30;;;;;;;;;;4947722;28;20255;-92
2022/06/08 00:49:02;;;;;;;1.27;1.20;;;;;;;;;;4940877;28;20211;-93
2022/06/08 00:51:30;;;;;;;1.20;1.10;;;;;;;;;;4943062;29;20264;-92
2022/06/08 00:53:59;;;;;;;1.30;1.20;;;;;;;;;;4942099;29;20296;-92
2022/06/08 00:56:29;;;;;;;1.83;1.10;;;;;;;;;;4943662;28;20205;-93
2022/06/08 00:58:57;;;;;;;1.13;1.13;;;;;;;;;;4942708;28;20224;-92
2022/06/08 01:01:25;;;;;;;1.42;1.20;;;;;;;;;;4949725;28;20305;-92
2022/06/08 01:04:05;;;;;;;1.30;1.20;;;;;;;;;;4955313;28;20289;-92
2022/06/08 01:06:33;;;;;;;0.95;0.90;;;;;;;;;;4949520;29;20228;-92
2022/06/08 01:09:00;;;;;;;1.30;1.20;;;;;;;;;;4943614;29;20296;-92
2022/06/08 01:11:30;;;;;;;1.17;1.08;;;;;;;;;;4937245;29;20221;-92
2022/06/08 01:14:02;;;;;;;1.20;1.10;;;;;;;;;;4942298;28;20237;-93
2022/06/08 01:16:30;;;;;;;1.17;1.08;;;;;;;;;;4954571;29;20229;-92
2022/06/08 01:18:59;;;;;;;1.42;1.33;;;;;;;;;;4947507;28;20212;-92
2022/06/08 01:21:44;;;;;;;2.40;1.17;;;;;;;;;;4951002;29;20207;-92
2022/06/08 01:24:14;;;;;;;1.20;1.10;;;;;;;;;;4951264;28;20209;-92
2022/06/08 01:26:45;;;;;;;1.13;1.08;;;;;;;;;;4952263;29;20364;-92
2022/06/08 01:29:16;;;;;;;1.27;1.17;;;;;;;;;;4936867;28;20225;-92
2022/06/08 01:31:47;;;;;;;1.05;1.02;;;;;;;;;;4946109;28;20220;-92
2022/06/08 01:34:19;;;;;;;1.00;1.00;;;;;;;;;;4955001;28;20213;-90
2022/06/08 01:36:56;;;;;;;1.27;1.00;;;;;;;;;;4942685;29;20280;-92
2022/06/08 01:39:29;;;;;;;1.30;1.20;;;;;;;;;;4948977;29;20208;-92
2022/06/08 01:42:05;;;;;;;1.52;1.13;;;;;;;;;;4950697;29;20216;-93
2022/06/08 01:44:41;;;;;;;1.38;1.13;;;;;;;;;;4949014;29;20220;-93
2022/06/08 01:47:12;;;;;;;1.00;1.00;;;;;;;;;;4951550;29;20228;-93
2022/06/08 01:49:44;;;;;;;1.67;1.20;;;;;;;;;;4949491;29;20201;-93
2022/06/08 01:52:15;;;;;;;1.42;1.10;;;;;;;;;;4953441;29;20267;-92
2022/06/08 01:54:57;;;;;;;0.98;0.98;;;;;;;;;;4943645;29;20212;-93
2022/06/08 01:57:34;;;;;;;1.00;1.00;;;;;;;;;;4943664;29;20224;-93
2022/06/08 02:00:04;;;;;;;1.20;1.00;;;;;;;;;;4945336;29;20208;-93
2022/06/08 02:02:33;;;;;;;1.15;1.05;;;;;;;;;;4943999;29;20201;-93
2022/06/08 02:05:06;;;;;;;1.20;1.10;;;;;;;;;;4942536;29;20240;-93
2022/06/08 02:07:35;;;;;;;1.30;1.10;;;;;;;;;;4951050;29;20232;-93
2022/06/08 02:10:09;;;;;;;1.63;1.02;;;;;;;;;;4954791;28;20267;-93
2022/06/08 02:12:38;;;;;;;1.15;1.05;;;;;;;;;;4945781;29;20213;-93
2022/06/08 02:15:09;;;;;;;1.10;1.00;;;;;;;;;;4941100;29;20209;-92
2022/06/08 02:17:40;;;;;;;1.40;1.30;;;;;;;;;;4935983;29;20228;-92
2022/06/08 02:20:10;;;;;;;1.35;1.00;;;;;;;;;;4943537;29;20205;-93
2022/06/08 02:22:39;;;;;;;1.00;1.00;;;;;;;;;;4943505;28;20205;-93
2022/06/08 02:25:15;;;;;;;1.17;1.00;;;;;;;;;;4943134;29;20217;-93
2022/06/08 02:27:46;;;;;;;1.10;1.10;;;;;;;;;;4948012;29;20312;-92
2022/06/08 02:30:15;;;;;;;0.98;0.90;;;;;;;;;;4949594;29;20213;-92
2022/06/08 02:35:30;;;;;;;1.05;1.05;;;;;;;;;;4942107;29;20341;-92
2022/06/08 02:38:02;;;;;;;1.17;1.10;;;;;;;;;;4942140;29;20224;-92
2022/06/08 02:40:33;;;;;;;1.15;1.15;;;;;;;;;;4946906;29;20209;-92
2022/06/08 02:43:02;;;;;;;1.00;0.95;;;;;;;;;;4935643;29;20213;-93
2022/06/08 02:45:31;;;;;;;1.45;1.10;;;;;;;;;;4952230;29;20248;-92
2022/06/08 02:48:02;;;;;;;1.52;1.20;;;;;;;;;;4944515;28;20235;-93
2022/06/08 02:50:29;;;;;;;1.02;1.00;;;;;;;;;;4938497;29;20248;-92
2022/06/08 02:53:07;;;;;;;1.20;1.13;;;;;;;;;;4937977;28;20232;-92
2022/06/08 02:55:39;;;;;;;1.90;1.02;;;;;;;;;;4943396;29;20201;-91
2022/06/08 02:58:09;;;;;;;1.17;1.10;;;;;;;;;;4936625;29;20232;-92
2022/06/08 03:00:38;;;;;;;1.10;1.10;;;;;;;;;;4939840;28;20209;-92
2022/06/08 03:03:07;;;;;;;1.15;1.10;;;;;;;;;;4941278;29;20233;-92
2022/06/08 03:05:36;;;;;;;1.45;1.30;;;;;;;;;;4939577;29;20236;-91
2022/06/08 03:08:09;;;;;;;1.48;1.10;;;;;;;;;;4950013;28;20295;-94
2022/06/08 03:10:42;;;;;;;1.15;1.10;;;;;;;;;;4939372;29;20237;-92
2022/06/08 03:13:17;;;;;;;1.08;1.08;;;;;;;;;;4935667;29;20276;-94
2022/06/08 03:15:46;;;;;;;1.75;1.02;;;;;;;;;;4937822;29;20255;-93
2022/06/08 03:18:20;;;;;;;1.13;1.10;;;;;;;;;;4936019;29;20228;-92
2022/06/08 03:20:51;;;;;;;1.33;1.23;;;;;;;;;;4937322;29;20209;-93
2022/06/08 03:23:20;;;;;;;2.85;1.30;;;;;;;;;;4945046;29;20276;-92
2022/06/08 03:25:52;;;;;;;2.17;1.20;;;;;;;;;;4952436;28;20231;-93
2022/06/08 03:28:22;;;;;;;1.40;1.30;;;;;;;;;;4966896;28;20212;-92
2022/06/08 03:30:57;;;;;;;1.73;1.50;;;;;;;;;;4960731;29;20208;-92
2022/06/08 03:33:24;;;;;;;1.42;1.33;;;;;;;;;;4964821;28;20240;-93
2022/06/08 03:35:52;;;;;;;1.58;1.30;;;;;;;;;;4971550;28;20189;-94
2022/06/08 03:38:21;;;;;;;1.45;1.13;;;;;;;;;;4966678;28;20216;-94
2022/06/08 03:40:50;;;;;;;1.90;1.30;;;;;;;;;;4969700;28;20208;-93
2022/06/08 03:43:19;;;;;;;1.30;1.20;;;;;;;;;;4968733;28;20190;-94
2022/06/08 03:45:49;;;;;;;1.33;1.23;;;;;;;;;;4955187;28;20224;-93
2022/06/08 03:48:17;;;;;;;1.60;1.30;;;;;;;;;;4941223;29;20713;-92
2022/06/08 03:50:44;;;;;;;1.30;1.20;;;;;;;;;;4934718;29;20216;-91
2022/06/08 03:53:15;;;;;;;1.35;1.25;;;;;;;;;;4945612;29;20217;-92
2022/06/08 03:55:43;;;;;;;1.40;1.30;;;;;;;;;;4948520;29;20236;-92
2022/06/08 03:58:12;;;;;;;1.27;1.15;;;;;;;;;;4951511;29;20232;-92
2022/06/08 04:00:41;;;;;;;1.30;1.20;;;;;;;;;;4951361;28;20205;-92
2022/06/08 04:03:09;;;;;;;1.50;1.40;;;;;;;;;;4945381;29;20263;-93
2022/06/08 04:05:37;;;;;;;1.30;1.20;;;;;;;;;;4956103;28;20236;-91
2022/06/08 04:08:04;;;;;;;1.00;1.00;;;;;;;;;;4950651;28;20229;-93
2022/06/08 04:10:35;;;;;;;1.35;1.25;;;;;;;;;;4944966;28;20213;-94
2022/06/08 04:13:06;;;;;;;1.40;1.30;;;;;;;;;;4938573;29;20213;-93
2022/06/08 04:15:47;;;;;;;1.55;1.20;;;;;;;;;;4942041;29;20205;-92
2022/06/08 04:18:20;;;;;;;1.45;1.35;;;;;;;;;;4945242;29;20244;-92
2022/06/08 04:20:50;;;;;;;1.60;1.17;;;;;;;;;;4956637;29;20267;-93
2022/06/08 04:23:25;;;;;;;1.23;1.13;;;;;;;;;;4947694;28;20216;-93
2022/06/08 04:25:57;;;;;;;1.58;1.33;;;;;;;;;;4938793;29;20224;-93
2022/06/08 04:28:29;;;;;;;1.27;1.15;;;;;;;;;;5001248;23;20229;-89
2022/06/08 04:31:01;;;;;;;1.40;1.30;;;;;;;;;;4936837;29;20213;-89
2022/06/08 04:39:31;;;;;;;1.50;1.40;;;;;;;;;;4908972;29;20206;-90
2022/06/08 04:42:17;;;;;;;1.48;1.38;;;;;;;;;;4913577;29;20235;-89
2022/06/08 04:44:44;;;;;;;5.20;1.77;;;;;;;;;;4918230;29;20236;-85
2022/06/08 04:50:27;;;;;;;23.75;5.20;;;;;;;;;;4926399;29;20200;-90
2022/06/08 04:53:06;;;;;;;24.73;5.95;;;;;;;;;;4919355;29;20205;-89
2022/06/08 04:55:36;;;;;;;31.00;7.60;;;;;;;;;;4918393;29;20202;-87
2022/06/08 04:58:03;;;;;;;27.38;7.63;;;;;;;;;;4915001;29;20285;-88
2022/06/08 05:00:31;;;;;;;6.50;2.38;;;;;;;;;;4916767;29;20209;-88
2022/06/08 05:02:59;;;;;;;2.65;1.70;;;;;;;;;;4917860;29;20693;-88
2022/06/08 05:05:30;;;;;;;3.42;1.77;;;;;;;;;;4917324;29;20225;-87
2022/06/08 05:08:04;;;;;;;5.70;1.80;;;;;;;;;;4913556;29;20237;-89
2022/06/08 05:10:34;;;;;;;4.85;2.00;;;;;;;;;;4915815;29;20209;-86
2022/06/08 05:13:02;;;;;;;5.45;2.30;;;;;;;;;;4917678;29;20674;-86
2022/06/08 05:15:30;;;;;;;4.63;1.90;;;;;;;;;;4917530;29;20210;-86
2022/06/08 05:17:58;;;;;;;3.65;1.65;;;;;;;;;;4917147;29;20222;-86
2022/06/08 05:20:26;;;;;;;5.10;1.70;;;;;;;;;;4914223;29;20261;-87
2022/06/08 05:22:56;;;;;;;4.95;1.80;;;;;;;;;;4909364;29;20597;-88
2022/06/08 05:25:27;;;;;;;3.05;1.77;;;;;;;;;;4915998;29;20212;-88
2022/06/08 05:27:55;;;;;;;3.75;1.83;;;;;;;;;;4905409;29;20238;-86
2022/06/08 05:30:22;;;;;;;3.80;1.88;;;;;;;;;;4906134;29;20214;-87
2022/06/08 05:32:50;;;;;;;2.75;1.67;;;;;;;;;;4904294;29;20211;-86
2022/06/08 05:35:17;;;;;;;3.65;1.90;;;;;;;;;;4907387;29;20202;-87
2022/06/08 05:37:46;;;;;;;3.47;1.85;;;;;;;;;;4909234;29;20262;-87
2022/06/08 05:40:14;;;;;;;2.17;1.40;;;;;;;;;;4931055;29;20226;-87
2022/06/08 05:42:43;;;;;;;2.63;1.60;;;;;;;;;;4930562;29;20213;-87
2022/06/08 05:45:13;;;;;;;2.45;1.50;;;;;;;;;;4911067;29;20298;-87
2022/06/08 05:47:41;;;;;;;2.85;1.58;;;;;;;;;;4910633;29;20226;-87
2022/06/08 05:50:09;;;;;;;3.15;1.80;;;;;;;;;;4906946;29;20206;-87
2022/06/08 05:52:38;;;;;;;2.45;1.40;;;;;;;;;;4900726;29;20210;-88
2022/06/08 05:55:13;;;;;;;2.72;1.48;;;;;;;;;;4903656;29;20210;-86
2022/06/08 06:00:19;;;;;;;1.95;1.42;;;;;;;;;;4960652;23;20310;-87
2022/06/08 06:02:47;;;;;;;1.80;1.50;;;;;;;;;;4914439;29;20600;-86
2022/06/08 06:08:09;;;;;;;1.42;1.33;;;;;;;;;;4905426;29;20713;-88
2022/06/08 06:10:40;;;;;;;3.67;1.55;;;;;;;;;;4913800;29;20205;-87
2022/06/08 06:13:08;;;;;;;2.58;1.52;;;;;;;;;;4913939;29;20216;-89
2022/06/08 06:15:40;;;;;;;2.15;1.45;;;;;;;;;;4910733;29;20205;-88
2022/06/08 06:18:08;;;;;;;1.52;1.42;;;;;;;;;;4910870;29;20226;-88
2022/06/08 06:20:38;;;;;;;3.17;1.30;;;;;;;;;;4912339;29;20203;-88
2022/06/08 06:23:08;;;;;;;3.00;1.50;;;;;;;;;;4905371;29;20237;-88
2022/06/08 06:25:35;;;;;;;2.88;1.38;;;;;;;;;;4905974;29;20226;-87
2022/06/08 06:28:03;;;;;;;2.72;1.50;;;;;;;;;;4908138;29;20237;-88
2022/06/08 06:30:30;;;;;;;2.80;1.80;;;;;;;;;;4909215;29;20566;-87
2022/06/08 06:32:59;;;;;;;3.30;1.40;;;;;;;;;;4909834;29;20253;-89
2022/06/08 06:35:30;;;;;;;3.25;1.45;;;;;;;;;;4911745;29;20216;-89
2022/06/08 06:37:57;;;;;;;2.10;1.40;;;;;;;;;;4910062;29;20250;-88
2022/06/08 06:40:24;;;;;;;2.78;1.50;;;;;;;;;;4910282;29;20254;-88
2022/06/08 06:42:52;;;;;;;1.88;1.27;;;;;;;;;;4909598;29;20201;-89
2022/06/08 06:45:19;;;;;;;3.00;1.30;;;;;;;;;;4907059;29;20214;-88
2022/06/08 06:47:47;;;;;;;2.00;1.40;;;;;;;;;;4907415;29;20226;-89
2022/06/08 06:50:26;;;;;;;4.03;1.50;;;;;;;;;;4908962;29;20254;-89
2022/06/08 06:52:53;;;;;;;3.50;1.45;;;;;;;;;;4905356;29;20216;-89
2022/06/08 06:55:25;;;;;;;2.63;1.27;;;;;;;;;;4906013;29;20262;-89
2022/06/08 06:57:53;;;;;;;2.33;1.50;;;;;;;;;;4904667;29;20588;-89
2022/06/08 07:00:20;;;;;;;2.85;1.40;;;;;;;;;;4908328;29;20313;-88
2022/06/08 07:02:52;;;;;;;2.13;1.23;;;;;;;;;;4912284;29;20783;-89
2022/06/08 07:05:23;;;;;;;3.58;1.50;;;;;;;;;;4914769;29;20210;-89
2022/06/08 07:07:53;;;;;;;2.70;1.50;;;;;;;;;;4908721;29;20240;-89
2022/06/08 07:10:24;;;;;;;2.40;1.25;;;;;;;;;;4915637;29;20214;-90
2022/06/08 07:12:54;;;;;;;2.33;1.30;;;;;;;;;;4907098;29;20317;-87
2022/06/08 07:15:31;;;;;;;3.45;1.40;;;;;;;;;;4904794;29;20626;-89
2022/06/08 07:18:01;;;;;;;2.50;1.60;;;;;;;;;;4909760;29;20237;-88
2022/06/08 07:20:32;;;;;;;3.00;1.45;;;;;;;;;;4903817;29;20218;-88
2022/06/08 07:23:00;;;;;;;1.27;1.10;;;;;;;;;;4904696;29;20298;-89
2022/06/08 07:25:30;;;;;;;1.92;1.27;;;;;;;;;;4910145;29;20226;-87
2022/06/08 07:27:59;;;;;;;2.40;1.27;;;;;;;;;;4917713;29;20237;-89
2022/06/08 07:30:29;;;;;;;1.45;1.23;;;;;;;;;;4905864;29;20409;-87
2022/06/08 07:33:05;;;;;;;2.97;1.30;;;;;;;;;;4906927;29;20203;-88
2022/06/08 07:35:36;;;;;;;2.45;1.27;;;;;;;;;;4919460;29;20213;-88
2022/06/08 07:38:07;;;;;;;3.70;1.50;;;;;;;;;;4910987;29;20230;-88
2022/06/08 07:40:35;;;;;;;2.53;1.42;;;;;;;;;;4901999;29;20214;-88
2022/06/08 07:43:02;;;;;;;2.63;1.38;;;;;;;;;;4916411;29;20287;-87
2022/06/08 07:45:30;;;;;;;1.92;1.15;;;;;;;;;;4914546;29;20245;-88
2022/06/08 07:50:46;;;;;;;2.33;1.50;;;;;;;;;;4907258;29;20204;-87
2022/06/08 07:53:15;;;;;;;1.70;1.20;;;;;;;;;;4919228;29;20206;-88
2022/06/08 07:55:43;;;;;;;2.28;1.30;;;;;;;;;;4919374;29;20297;-88
2022/06/08 07:58:12;;;;;;;1.92;1.40;;;;;;;;;;4919742;29;20226;-87
2022/06/08 08:00:43;;;;;;;2.22;1.10;;;;;;;;;;4913776;29;20214;-86
2022/06/08 08:03:17;;;;;;;2.13;1.35;;;;;;;;;;4901935;29;20214;-87
2022/06/08 08:05:47;;;;;;;3.05;1.25;;;;;;;;;;4914595;29;20217;-88
2022/06/08 08:08:15;;;;;;;1.83;1.13;;;;;;;;;;4908155;29;20243;-88
2022/06/08 08:10:43;;;;;;;1.83;1.27;;;;;;;;;;4919685;29;20236;-88
2022/06/08 08:13:10;;;;;;;2.08;1.13;;;;;;;;;;4907321;29;20643;-88
2022/06/08 08:15:38;;;;;;;1.75;1.30;;;;;;;;;;4919068;29;20272;-88
2022/06/08 08:18:06;;;;;;;1.85;1.10;;;;;;;;;;4906375;29;20227;-88
2022/06/08 08:20:36;;;;;;;2.45;1.40;;;;;;;;;;4914634;29;20217;-89
2022/06/08 08:23:05;;;;;;;2.30;0.93;;;;;;;;;;4908827;29;20246;-88
2022/06/08 08:25:35;;;;;;;2.22;1.25;;;;;;;;;;4911644;29;20721;-88
2022/06/08 08:28:03;;;;;;;1.48;1.00;;;;;;;;;;4900971;29;20242;-87
2022/06/08 08:30:31;;;;;;;1.95;1.40;;;;;;;;;;4914975;29;20214;-87
2022/06/08 08:32:59;;;;;;;1.52;1.10;;;;;;;;;;4917615;29;20209;-86
2022/06/08 08:35:27;;;;;;;2.50;1.05;;;;;;;;;;4903542;29;20218;-88
2022/06/08 08:37:59;;;;;;;1.85;1.10;;;;;;;;;;4904802;29;20227;-87
2022/06/08 08:40:38;;;;;;;2.75;1.10;;;;;;;;;;4901709;29;20218;-88
2022/06/08 08:43:07;;;;;;;1.83;0.88;;;;;;;;;;4901820;29;20210;-88
2022/06/08 08:45:42;;;;;;;2.13;1.20;;;;;;;;;;4910825;29;20206;-86
2022/06/08 08:48:15;;;;;;;1.63;1.10;;;;;;;;;;4914579;29;20267;-88
2022/06/08 08:50:48;;;;;;;3.40;1.40;;;;;;;;;;4918545;29;20214;-87
2022/06/08 08:53:23;;;;;;;2.38;1.10;;;;;;;;;;4900942;29;20653;-88
2022/06/08 08:55:58;;;;;;;2.00;1.25;;;;;;;;;;4910742;29;20251;-88
2022/06/08 08:58:27;;;;;;;1.75;1.30;;;;;;;;;;4930432;29;20213;-88
2022/06/08 09:00:56;;;;;;;2.58;1.20;;;;;;;;;;4918067;29;20219;-86
2022/06/08 09:03:27;;;;;;;1.52;1.27;;;;;;;;;;4915921;29;20214;-88
2022/06/08 09:05:59;;;;;;;1.92;1.27;;;;;;;;;;4906318;29;20218;-86
2022/06/08 09:08:27;;;;;;;3.22;1.23;;;;;;;;;;4906950;29;20242;-87
2022/06/08 09:11:00;;;;;;;1.98;1.23;;;;;;;;;;4903730;29;20218;-86
2022/06/08 09:13:33;;;;;;;1.10;1.00;;;;;;;;;;4907497;29;20675;-88
2022/06/08 09:16:00;;;;;;;1.48;1.10;;;;;;;;;;4906883;29;20214;-87
2022/06/08 09:18:39;;;;;;;2.10;1.10;;;;;;;;;;4907506;29;20261;-86
2022/06/08 09:21:24;;;;;;;1.70;1.20;;;;;;;;;;4912494;29;20217;-87
2022/06/08 09:23:55;;;;;;;1.90;1.20;;;;;;;;;;4911784;29;20213;-86
2022/06/08 09:26:33;;;;;;;2.25;1.30;;;;;;;;;;4915350;29;20741;-87
2022/06/08 09:29:01;;;;;;;2.28;1.35;;;;;;;;;;4913433;29;20216;-86
2022/06/08 09:31:30;;;;;;;2.10;1.17;;;;;;;;;;4917552;29;20621;-87
2022/06/08 09:34:05;;;;;;;2.75;1.20;;;;;;;;;;4914963;29;20714;-87
2022/06/08 09:36:32;;;;;;;2.15;1.20;;;;;;;;;;4916476;29;20276;-87
2022/06/08 09:39:00;;;;;;;2.15;1.30;;;;;;;;;;4909871;29;20210;-87
2022/06/08 09:41:32;;;;;;;2.20;1.30;;;;;;;;;;4900711;29;20270;-87
2022/06/08 09:44:11;;;;;;;2.30;1.30;;;;;;;;;;4907255;29;20221;-86
2022/06/08 09:52:32;;;;;;;2.15;1.23;;;;;;;;;;4911952;29;20213;-86
2022/06/08 09:55:30;;;;;;;3.83;1.50;;;;;;;;;;4903120;29;20210;-86
2022/06/08 09:58:24;;;;;;;1.58;1.05;;;;;;;;;;4885788;29;20596;-86
2022/06/08 10:04:13;;;;;;;1.85;1.40;;;;;;;;;;4905764;29;20260;-87
2022/06/08 10:26:26;;;;;;;;;;;;;;;;;;;;;
2022/06/08 10:29:20;;;;;;;4.60;3.08;;;;;;;;;;4938228;23;20221;-88
2022/06/08 10:40:46;;;;;;;2.70;1.55;;;;;;;;;;4872248;29;20272;-88
2022/06/08 10:46:52;;;;;;;1.90;1.10;;;;;;;;;;4783740;29;20259;-90
2022/06/08 10:59:41;;;;;;;4.88;1.40;;;;;;;;;;4636168;30;20265;-92
2022/06/08 11:09:20;;;;;;;2.47;1.50;;;;;;;;;;4691766;30;20229;-91
2022/06/08 11:15:14;;;;;;;2.80;1.40;;;;;;;;;;4654841;30;20225;-89
2022/06/08 11:17:48;;;;;;;1.40;1.02;;;;;;;;;;4688463;30;20317;-88
2022/06/08 11:20:20;;;;;;;2.47;1.50;;;;;;;;;;4689967;30;20218;-89
2022/06/08 11:22:52;;;;;;;1.95;1.55;;;;;;;;;;4737301;30;20799;-89
2022/06/08 11:25:39;;;;;;;2.95;1.17;;;;;;;;;;4747049;30;20693;-90
2022/06/08 12:54:05;;;;;;;14.60;2.83;;;;;;;;;;4896223;29;20239;-92
2022/06/08 12:56:46;;;;;;;12.43;2.20;;;;;;;;;;4885031;29;20221;-90
2022/06/08 12:59:25;;;;;;;7.65;2.00;;;;;;;;;;4879396;29;20235;-91
